Time,TemperatureF,DewpointF,PressureIn,WindDirection,WindDirectionDegrees,WindSpeedMPH,WindSpeedGustMPH,Humidity,HourlyPrecipIn,Conditions,Clouds,dailyrainin,SoftwareType,DateUTC
2013-05-02 00:07:00,39.8,37.0,30.17,WNW,289,1.0,9.0,88,0.00,,,0.00,weatherlink.com 1.10,2013-05-02 04:07:00,
2013-05-02 00:22:00,39.6,36.0,30.17,NW,311,1.0,9.0,88,0.00,,,0.00,weatherlink.com 1.10,2013-05-02 04:22:00,
2013-05-02 00:37:00,39.4,36.0,30.17,West,280,1.0,9.0,88,0.00,,,0.00,weatherlink.com 1.10,2013-05-02 04:37:00,
2013-05-02 00:52:00,39.1,36.0,30.17,West,271,1.0,9.0,88,0.00,,,0.00,weatherlink.com 1.10,2013-05-02 04:52:00,
2013-05-02 01:07:00,38.7,36.0,30.17,West,272,2.0,9.0,89,0.00,,,0.00,weatherlink.com 1.10,2013-05-02 05:07:00,
2013-05-02 01:23:00,38.4,36.0,30.16,West,278,7.0,10.0,89,0.00,,,0.00,weatherlink.com 1.10,2013-05-02 05:23:00,
2013-05-02 01:38:00,38.4,36.0,30.17,WNW,283,4.0,12.0,90,0.00,,,0.00,weatherlink.com 1.10,2013-05-02 05:38:00,
2013-05-02 01:53:00,38.2,36.0,30.17,West,270,4.0,12.0,90,0.00,,,0.00,weatherlink.com 1.10,2013-05-02 05:53:00,
2013-05-02 02:08:00,37.9,36.0,30.16,West,281,3.0,12.0,91,0.00,,,0.00,weatherlink.com 1.10,2013-05-02 06:08:00,
2013-05-02 02:23:00,38.0,36.0,30.16,NW,304,2.0,10.0,91,0.00,,,0.00,weatherlink.com 1.10,2013-05-02 06:23:00,
2013-05-02 02:38:00,38.1,36.0,30.15,West,272,3.0,9.0,91,0.00,,,0.00,weatherlink.com 1.10,2013-05-02 06:38:00,
2013-05-02 02:53:00,38.2,36.0,30.15,NNW,327,2.0,8.0,91,0.00,,,0.00,weatherlink.com 1.10,2013-05-02 06:53:00,
2013-05-02 03:08:00,38.4,36.0,30.15,NNE,29,1.0,8.0,91,0.00,,,0.00,weatherlink.com 1.10,2013-05-02 07:08:00,
2013-05-02 03:23:00,38.3,36.0,30.14,WNW,283,2.0,7.0,91,0.00,,,0.00,weatherlink.com 1.10,2013-05-02 07:23:00,
2013-05-02 03:38:00,37.9,36.0,30.14,NW,326,2.0,5.0,92,0.00,,,0.00,weatherlink.com 1.10,2013-05-02 07:38:00,
2013-05-02 03:53:00,37.7,36.0,30.14,West,272,3.0,3.0,92,0.00,,,0.00,weatherlink.com 1.10,2013-05-02 07:53:00,
2013-05-02 04:08:00,37.5,35.0,30.14,WNW,293,2.0,6.0,92,0.00,,,0.00,weatherlink.com 1.10,2013-05-02 08:08:00,
2013-05-02 04:23:00,37.4,36.0,30.14,WNW,297,1.0,5.0,93,0.00,,,0.00,weatherlink.com 1.10,2013-05-02 08:23:00,
2013-05-02 04:38:00,37.3,36.0,30.14,WNW,293,1.0,6.0,93,0.00,,,0.00,weatherlink.com 1.10,2013-05-02 08:38:00,
2013-05-02 04:53:00,37.2,35.0,30.14,SW,221,0.0,4.0,93,0.00,,,0.00,weatherlink.com 1.10,2013-05-02 08:53:00,
2013-05-02 05:08:00,37.2,35.0,30.14,WNW,285,0.0,2.0,93,0.00,,,0.00,weatherlink.com 1.10,2013-05-02 09:08:00,
2013-05-02 05:23:00,37.1,35.0,30.14,NW,321,0.0,3.0,93,0.00,,,0.00,weatherlink.com 1.10,2013-05-02 09:23:00,
2013-05-02 05:38:00,37.0,35.0,30.14,NW,317,0.0,2.0,93,0.00,,,0.00,weatherlink.com 1.10,2013-05-02 09:38:00,
2013-05-02 05:54:00,36.9,35.0,30.15,West,260,0.0,1.0,94,0.00,,,0.00,weatherlink.com 1.10,2013-05-02 09:54:00,
2013-05-02 06:08:00,36.8,35.0,30.15,West,262,0.0,0.0,94,0.00,,,0.00,weatherlink.com 1.10,2013-05-02 10:08:00,
2013-05-02 06:23:00,36.8,35.0,30.15,West,262,0.0,0.0,94,0.00,,,0.00,weatherlink.com 1.10,2013-05-02 10:23:00,
2013-05-02 06:38:00,36.9,35.0,30.16,North,1,0.0,1.0,94,0.00,,,0.00,weatherlink.com 1.10,2013-05-02 10:38:00,
2013-05-02 06:53:00,37.7,36.0,30.16,NNW,340,0.0,1.0,94,0.00,,,0.00,weatherlink.com 1.10,2013-05-02 10:53:00,
2013-05-02 07:08:00,38.3,36.0,30.16,NW,326,0.0,2.0,92,0.00,,,0.00,weatherlink.com 1.10,2013-05-02 11:08:00,
2013-05-02 07:23:00,38.3,36.0,30.16,NW,319,0.0,2.0,92,0.00,,,0.00,weatherlink.com 1.10,2013-05-02 11:23:00,
2013-05-02 07:38:00,40.0,38.0,30.17,NW,321,1.0,1.0,91,0.00,,,0.00,weatherlink.com 1.10,2013-05-02 11:38:00,
2013-05-02 07:53:00,41.1,38.0,30.18,North,351,1.0,3.0,89,0.00,,,0.00,weatherlink.com 1.10,2013-05-02 11:53:00,
2013-05-02 08:08:00,42.3,39.0,30.18,West,281,1.0,4.0,88,0.00,,,0.00,weatherlink.com 1.10,2013-05-02 12:08:00,
2013-05-02 08:23:00,42.9,39.0,30.18,ENE,57,4.0,4.0,87,0.00,,,0.00,weatherlink.com 1.10,2013-05-02 12:23:00,
2013-05-02 08:38:00,42.4,39.0,30.18,NNE,27,3.0,3.0,89,0.00,,,0.00,weatherlink.com 1.10,2013-05-02 12:38:00,
2013-05-02 08:53:00,43.1,40.0,30.18,NNE,23,1.0,2.0,88,0.00,,,0.00,weatherlink.com 1.10,2013-05-02 12:53:00,
2013-05-02 09:08:00,44.0,41.0,30.19,NNE,13,1.0,3.0,88,0.00,,,0.00,weatherlink.com 1.10,2013-05-02 13:08:00,
2013-05-02 09:23:00,46.0,42.0,30.19,NNE,12,1.0,2.0,87,0.00,,,0.00,weatherlink.com 1.10,2013-05-02 13:23:00,
2013-05-02 09:38:00,46.9,42.0,30.19,NNE,12,0.0,2.0,84,0.00,,,0.00,weatherlink.com 1.10,2013-05-02 13:38:00,
2013-05-02 09:53:00,47.9,43.0,30.19,NNE,12,1.0,3.0,84,0.00,,,0.00,weatherlink.com 1.10,2013-05-02 13:53:00,
2013-05-02 10:09:00,48.3,44.0,30.18,NNE,20,2.0,3.0,85,0.00,,,0.00,weatherlink.com 1.10,2013-05-02 14:09:00,
2013-05-02 10:24:00,49.8,45.0,30.18,NNE,19,0.0,1.0,82,0.00,,,0.00,weatherlink.com 1.10,2013-05-02 14:24:00,
2013-05-02 10:39:00,51.5,46.0,30.18,NNE,23,0.0,1.0,81,0.00,,,0.00,weatherlink.com 1.10,2013-05-02 14:39:00,
2013-05-02 10:54:00,55.3,48.0,30.18,East,85,1.0,3.0,76,0.00,,,0.00,weatherlink.com 1.10,2013-05-02 14:54:00,
2013-05-02 11:09:00,56.1,48.0,30.18,ESE,112,1.0,3.0,75,0.00,,,0.00,weatherlink.com 1.10,2013-05-02 15:09:00,
2013-05-02 11:24:00,58.3,49.0,30.17,SE,135,2.0,3.0,71,0.00,,,0.00,weatherlink.com 1.10,2013-05-02 15:24:00,
2013-05-02 11:39:00,59.1,49.0,30.17,ESE,123,1.0,4.0,70,0.00,,,0.00,weatherlink.com 1.10,2013-05-02 15:39:00,
2013-05-02 11:55:00,58.5,50.0,30.17,SE,130,4.0,5.0,74,0.00,,,0.00,weatherlink.com 1.10,2013-05-02 15:55:00,
2013-05-02 12:15:00,60.7,49.0,30.16,SE,142,5.0,8.0,65,0.00,,,0.00,weatherlink.com 1.10,2013-05-02 16:15:00,
2013-05-02 12:24:00,61.1,50.0,30.16,SE,143,7.0,10.0,66,0.00,,,0.00,weatherlink.com 1.10,2013-05-02 16:24:00,
2013-05-02 12:39:00,61.6,50.0,30.16,SSE,148,2.0,8.0,65,0.00,,,0.00,weatherlink.com 1.10,2013-05-02 16:39:00,
2013-05-02 13:00:00,63.3,51.0,30.15,SE,135,5.0,7.0,65,0.00,,,0.00,weatherlink.com 1.10,2013-05-02 17:00:00,
2013-05-02 13:10:00,63.4,50.0,30.14,ESE,118,4.0,8.0,63,0.00,,,0.00,weatherlink.com 1.10,2013-05-02 17:10:00,
2013-05-02 13:25:00,62.6,51.0,30.14,SE,136,4.0,8.0,66,0.00,,,0.00,weatherlink.com 1.10,2013-05-02 17:25:00,
2013-05-02 13:40:00,63.8,52.0,30.14,ESE,119,3.0,5.0,65,0.00,,,0.00,weatherlink.com 1.10,2013-05-02 17:40:00,
2013-05-02 13:55:00,63.8,52.0,30.13,SE,132,5.0,6.0,65,0.00,,,0.00,weatherlink.com 1.10,2013-05-02 17:55:00,
2013-05-02 14:10:00,64.3,52.0,30.12,SE,135,8.0,9.0,65,0.00,,,0.00,weatherlink.com 1.10,2013-05-02 18:10:00,
2013-05-02 14:25:00,63.9,51.0,30.12,SE,137,4.0,10.0,64,0.00,,,0.00,weatherlink.com 1.10,2013-05-02 18:25:00,
2013-05-02 14:40:00,65.9,53.0,30.12,ESE,122,6.0,9.0,63,0.00,,,0.00,weatherlink.com 1.10,2013-05-02 18:40:00,
2013-05-02 14:55:00,65.9,52.0,30.12,SE,138,7.0,10.0,62,0.00,,,0.00,weatherlink.com 1.10,2013-05-02 18:55:00,
2013-05-02 15:10:00,65.9,53.0,30.11,SE,127,8.0,10.0,64,0.00,,,0.00,weatherlink.com 1.10,2013-05-02 19:10:00,
2013-05-02 15:25:00,66.2,52.0,30.11,SE,136,7.0,10.0,61,0.00,,,0.00,weatherlink.com 1.10,2013-05-02 19:25:00,
2013-05-02 15:40:00,66.8,52.0,30.11,SE,141,9.0,11.0,59,0.00,,,0.00,weatherlink.com 1.10,2013-05-02 19:40:00,
2013-05-02 15:55:00,67.5,52.0,30.10,SE,139,7.0,10.0,59,0.00,,,0.00,weatherlink.com 1.10,2013-05-02 19:55:00,
2013-05-02 16:10:00,66.1,52.0,30.10,SE,125,10.0,10.0,61,0.00,,,0.00,weatherlink.com 1.10,2013-05-02 20:10:00,
2013-05-02 16:25:00,66.4,52.0,30.10,SE,132,5.0,7.0,61,0.00,,,0.00,weatherlink.com 1.10,2013-05-02 20:25:00,
2013-05-02 16:40:00,67.6,53.0,30.09,SE,139,5.0,6.0,59,0.00,,,0.00,weatherlink.com 1.10,2013-05-02 20:40:00,
2013-05-02 16:54:00,68.7,52.0,30.09,SE,132,3.0,6.0,56,0.00,,,0.00,weatherlink.com 1.10,2013-05-02 20:54:00,
2013-05-02 17:10:00,69.7,54.0,30.09,SW,222,1.0,5.0,58,0.00,,,0.00,weatherlink.com 1.10,2013-05-02 21:10:00,
2013-05-02 17:24:00,68.0,51.0,30.09,West,274,5.0,8.0,54,0.00,,,0.00,weatherlink.com 1.10,2013-05-02 21:24:00,
2013-05-02 17:40:00,64.1,48.0,30.09,WNW,298,3.0,8.0,57,0.00,,,0.00,weatherlink.com 1.10,2013-05-02 21:40:00,
2013-05-02 17:55:00,62.4,48.0,30.09,West,262,2.0,11.0,60,0.00,,,0.00,weatherlink.com 1.10,2013-05-02 21:55:00,
2013-05-02 18:09:00,60.4,46.0,30.09,NW,317,7.0,11.0,59,0.00,,,0.00,weatherlink.com 1.10,2013-05-02 22:09:00,
2013-05-02 18:25:00,58.7,46.0,30.09,NW,322,2.0,11.0,62,0.00,,,0.00,weatherlink.com 1.10,2013-05-02 22:25:00,
2013-05-02 18:40:00,57.2,45.0,30.10,WSW,239,2.0,10.0,63,0.00,,,0.00,weatherlink.com 1.10,2013-05-02 22:40:00,
2013-05-02 18:55:00,56.4,45.0,30.10,West,269,6.0,9.0,65,0.00,,,0.00,weatherlink.com 1.10,2013-05-02 22:55:00,
2013-05-02 19:10:00,54.6,43.0,30.10,WNW,288,2.0,12.0,64,0.00,,,0.00,weatherlink.com 1.10,2013-05-02 23:10:00,
2013-05-02 19:26:00,52.6,42.0,30.09,NW,307,7.0,9.0,67,0.00,,,0.00,weatherlink.com 1.10,2013-05-02 23:26:00,
2013-05-02 19:41:00,51.3,41.0,30.10,SW,226,6.0,12.0,69,0.00,,,0.00,weatherlink.com 1.10,2013-05-02 23:41:00,
2013-05-02 19:56:00,49.2,40.0,30.10,NW,326,3.0,11.0,71,0.00,,,0.00,weatherlink.com 1.10,2013-05-02 23:56:00,
2013-05-02 20:11:00,47.6,40.0,30.09,NW,326,2.0,8.0,74,0.00,,,0.00,weatherlink.com 1.10,2013-05-03 00:11:00,
2013-05-02 20:26:00,46.6,39.0,30.10,NW,318,0.0,6.0,75,0.00,,,0.00,weatherlink.com 1.10,2013-05-03 00:26:00,
2013-05-02 20:41:00,45.0,38.0,30.10,West,265,2.0,6.0,77,0.00,,,0.00,weatherlink.com 1.10,2013-05-03 00:41:00,
2013-05-02 20:56:00,43.9,38.0,30.10,WNW,293,1.0,3.0,80,0.00,,,0.00,weatherlink.com 1.10,2013-05-03 00:56:00,
2013-05-02 21:11:00,43.1,38.0,30.10,West,265,2.0,5.0,81,0.00,,,0.00,weatherlink.com 1.10,2013-05-03 01:11:00,
2013-05-02 21:26:00,42.1,37.0,30.11,WNW,294,1.0,10.0,82,0.00,,,0.00,weatherlink.com 1.10,2013-05-03 01:26:00,
2013-05-02 21:41:00,41.6,37.0,30.11,WNW,301,5.0,7.0,83,0.00,,,0.00,weatherlink.com 1.10,2013-05-03 01:41:00,
2013-05-02 21:55:00,41.0,36.0,30.11,West,259,3.0,10.0,83,0.00,,,0.00,weatherlink.com 1.10,2013-05-03 01:55:00,
2013-05-02 22:10:00,40.6,36.0,30.10,NW,304,5.0,8.0,84,0.00,,,0.00,weatherlink.com 1.10,2013-05-03 02:10:00,
2013-05-02 22:25:00,40.2,36.0,30.11,WNW,295,2.0,8.0,84,0.00,,,0.00,weatherlink.com 1.10,2013-05-03 02:25:00,
2013-05-02 22:40:00,39.6,36.0,30.11,NW,315,1.0,8.0,85,0.00,,,0.00,weatherlink.com 1.10,2013-05-03 02:40:00,
2013-05-02 22:55:00,39.1,35.0,30.10,WNW,294,5.0,11.0,86,0.00,,,0.00,weatherlink.com 1.10,2013-05-03 02:55:00,
2013-05-02 23:10:00,38.7,35.0,30.11,WSW,242,1.0,10.0,87,0.00,,,0.00,weatherlink.com 1.10,2013-05-03 03:10:00,
2013-05-02 23:25:00,38.5,35.0,30.11,North,359,1.0,5.0,87,0.00,,,0.00,weatherlink.com 1.10,2013-05-03 03:25:00,
2013-05-02 23:40:00,38.5,35.0,30.11,NW,310,0.0,4.0,88,0.00,,,0.00,weatherlink.com 1.10,2013-05-03 03:40:00,
2013-05-02 23:55:00,38.4,35.0,30.10,NNW,330,1.0,4.0,88,0.00,,,0.00,weatherlink.com 1.10,2013-05-03 03:55:00,